ADDS METAR Data INFO
IDs: Format: Raw Decoded Include TAF

Data at: 1017 UTC 12 Dec 2017

KWVI 120953Z AUTO 00000KT 10SM CLR 07/00 A3030 RMK AO2 SLP261 T00670000
KWVI 120853Z AUTO 00000KT 10SM CLR 08/01 A3031 RMK AO2 SLP263 T00780006 50001
KWVI 120753Z AUTO 28004KT 10SM CLR 08/02 A3032 RMK AO2 SLP265 T00830017 402280056
KWVI 120653Z AUTO 29004KT 10SM CLR 09/02 A3031 RMK AO2 SLP263 T00890017
KWVI 120553Z AUTO 00000KT 10SM CLR 10/02 A3031 RMK AO2 SLP262 T01000017 10211 20100 53013
KWVI 120453Z AUTO 00000KT 10SM CLR 12/01 A3029 RMK AO2 SLP257 T01220011
KWVI 120353Z AUTO 00000KT 10SM CLR 12/03 A3028 RMK AO2 SLP253 T01220028
KWVI 120253Z AUTO 31004KT 10SM CLR 13/04 A3027 RMK AO2 SLP249 T01330039 53015
KWVI 120153Z AUTO 00000KT 10SM CLR 15/05 A3025 RMK AO2 SLP243 T01500050
KWVI 120053Z AUTO 08003KT 10SM CLR 19/01 A3023 RMK AO2 SLP236 T01890011
KWVI 112353Z AUTO 09006KT 10SM CLR 21/02 A3022 RMK AO2 SLP234 T02110017 10228 20133 56006
KWVI 112253Z AUTO 10005KT 10SM CLR 23/02 A3022 RMK AO2 SLP234 T02280022
KWVI 112153Z AUTO 08006KT 10SM CLR 22/03 A3023 RMK AO2 SLP235 T02220028
KWVI 112053Z AUTO 09005KT 10SM CLR 21/02 A3024 RMK AO2 SLP240 T02060022 58017
KWVI 111953Z AUTO 08004KT 10SM CLR 19/01 A3026 RMK AO2 SLP247 T01890011
KWVI 111853Z AUTO 00000KT 10SM CLR 16/01 A3029 RMK AO2 SLP256 T01560011
KWVI 111753Z AUTO 06004KT 10SM CLR 13/M01 A3029 RMK AO2 SLP258 T01331006 10133 20056 53015
KWVI 111653Z AUTO 00000KT 10SM CLR 10/M01 A3027 RMK AO2 SLP251 T01001006
KWVI 111553Z AUTO 00000KT 10SM CLR 07/M01 A3026 RMK AO2 SLP249 T00671011
KWVI 111453Z AUTO 00000KT 10SM CLR 06/M01 A3025 RMK AO2 SLP244 T00561011 53006
KWVI 111353Z AUTO 05004KT 10SM CLR 06/M01 A3023 RMK AO2 SLP238 T00611011
KWVI 111253Z AUTO 06003KT 10SM CLR 08/M01 A3023 RMK AO2 SLP238 T00781011
KWVI 111153Z AUTO 00000KT 10SM CLR 07/M01 A3023 RMK AO2 SLP237 T00671006 10100 20067 50005
KWVI 111053Z AUTO 01005KT 10SM CLR 08/M01 A3023 RMK AO2 SLP238 T00781006
KWVI 110953Z AUTO 00000KT 10SM CLR 07/00 A3023 RMK AO2 SLP237 T00720000
KWVI 110853Z AUTO 04004KT 10SM CLR 09/00 A3022 RMK AO2 SLP232 T00940000 50003
KWVI 110753Z AUTO 01004KT 10SM CLR 09/00 A3022 RMK AO2 SLP232 T00890000 402390050
KWVI 110653Z AUTO 01003KT 10SM CLR 08/00 A3022 RMK AO2 SLP233 T00830000
KWVI 110553Z AUTO 36003KT 10SM CLR 10/01 A3021 RMK AO2 SLP229 T01000006 10211 20089 51014
KWVI 110453Z AUTO 34004KT 10SM CLR 09/01 A3020 RMK AO2 SLP226 T00940011
KWVI 110353Z AUTO 00000KT 10SM CLR 11/01 A3018 RMK AO2 SLP219 T01110011
KWVI 110253Z AUTO 32003KT 10SM CLR 12/02 A3017 RMK AO2 SLP215 T01220022 53005
KWVI 110153Z AUTO 00000KT 10SM CLR 14/03 A3016 RMK AO2 SLP214 T01440033
KWVI 110053Z AUTO 35003KT 10SM CLR 18/03 A3016 RMK AO2 SLP212 T01780033
KWVI 102353Z AUTO 04003KT 10SM CLR 21/02 A3015 RMK AO2 SLP211 T02110022 10239 20150 56013
KWVI 102253Z AUTO 08005KT 10SM CLR 23/02 A3016 RMK AO2 SLP212 T02330022